sensor_id;sensor_type;location;lat;lon;timestamp;pressure;altitude;pressure_sealevel;temperature;humidity
81230;BME280;70701;44.452;18.652;2023-07-31T00:00:11;98905.84;;;21.20;77.69
81230;BME280;70701;44.452;18.652;2023-07-31T00:02:38;98900.19;;;21.20;77.98
81230;BME280;70701;44.452;18.652;2023-07-31T00:05:04;98898.38;;;21.40;76.95
81230;BME280;70701;44.452;18.652;2023-07-31T00:07:30;98894.25;;;21.41;77.01
81230;BME280;70701;44.452;18.652;2023-07-31T00:09:56;98870.84;;;21.46;76.67
81230;BME280;70701;44.452;18.652;2023-07-31T00:12:22;98892.75;;;21.73;76.32
81230;BME280;70701;44.452;18.652;2023-07-31T00:14:48;98893.00;;;21.76;75.74
81230;BME280;70701;44.452;18.652;2023-07-31T00:17:14;98901.47;;;21.87;75.03
81230;BME280;70701;44.452;18.652;2023-07-31T00:19:40;98870.06;;;21.73;74.84
81230;BME280;70701;44.452;18.652;2023-07-31T00:22:05;98893.75;;;21.82;75.01
81230;BME280;70701;44.452;18.652;2023-07-31T00:24:31;98908.69;;;21.88;74.86
81230;BME280;70701;44.452;18.652;2023-07-31T00:26:56;98891.44;;;21.69;75.03
81230;BME280;70701;44.452;18.652;2023-07-31T00:29:22;98922.59;;;21.86;74.79
81230;BME280;70701;44.452;18.652;2023-07-31T00:31:48;98931.13;;;21.69;75.09
81230;BME280;70701;44.452;18.652;2023-07-31T00:34:14;98912.06;;;21.47;75.89
81230;BME280;70701;44.452;18.652;2023-07-31T00:36:39;98911.50;;;21.37;76.21
81230;BME280;70701;44.452;18.652;2023-07-31T00:39:05;98932.41;;;21.45;76.40
81230;BME280;70701;44.452;18.652;2023-07-31T00:41:30;98931.88;;;21.52;75.96
81230;BME280;70701;44.452;18.652;2023-07-31T00:43:56;98929.56;;;21.57;75.67
81230;BME280;70701;44.452;18.652;2023-07-31T00:46:22;98928.03;;;21.61;75.28
81230;BME280;70701;44.452;18.652;2023-07-31T00:48:48;98917.22;;;21.48;75.26
81230;BME280;70701;44.452;18.652;2023-07-31T00:51:15;98924.41;;;21.44;75.70
81230;BME280;70701;44.452;18.652;2023-07-31T00:53:41;98914.84;;;21.35;75.94
81230;BME280;70701;44.452;18.652;2023-07-31T00:56:08;98915.91;;;21.32;76.39
81230;BME280;70701;44.452;18.652;2023-07-31T00:58:33;98916.66;;;21.27;76.62
81230;BME280;70701;44.452;18.652;2023-07-31T01:00:59;98908.69;;;21.37;76.60
81230;BME280;70701;44.452;18.652;2023-07-31T01:03:25;98911.50;;;21.43;76.33
81230;BME280;70701;44.452;18.652;2023-07-31T01:06:15;98912.31;;;21.49;75.61
81230;BME280;70701;44.452;18.652;2023-07-31T01:09:03;98906.69;;;20.55;79.35
81230;BME280;70701;44.452;18.652;2023-07-31T01:11:50;98911.81;;;20.51;80.14
81230;BME280;70701;44.452;18.652;2023-07-31T01:14:17;98900.06;;;20.64;78.85
81230;BME280;70701;44.452;18.652;2023-07-31T01:16:43;98891.88;;;20.77;78.27
81230;BME280;70701;44.452;18.652;2023-07-31T01:19:10;98909.78;;;20.57;79.00
81230;BME280;70701;44.452;18.652;2023-07-31T01:26:45;98913.50;;;20.20;80.63
81230;BME280;70701;44.452;18.652;2023-07-31T01:29:20;98914.84;;;20.36;80.35
81230;BME280;70701;44.452;18.652;2023-07-31T01:31:50;98912.56;;;20.46;79.51
81230;BME280;70701;44.452;18.652;2023-07-31T01:34:17;98913.75;;;20.82;78.44
81230;BME280;70701;44.452;18.652;2023-07-31T01:36:44;98894.53;;;20.37;79.79
81230;BME280;70701;44.452;18.652;2023-07-31T01:39:09;98885.31;;;20.43;79.72
81230;BME280;70701;44.452;18.652;2023-07-31T01:41:35;98916.06;;;20.78;78.84
81230;BME280;70701;44.452;18.652;2023-07-31T01:44:01;98910.44;;;20.89;77.23
81230;BME280;70701;44.452;18.652;2023-07-31T01:46:26;98894.19;;;20.78;77.01
81230;BME280;70701;44.452;18.652;2023-07-31T01:48:52;98897.81;;;20.85;76.35
81230;BME280;70701;44.452;18.652;2023-07-31T01:51:18;98904.44;;;20.65;77.57
81230;BME280;70701;44.452;18.652;2023-07-31T01:53:44;98895.34;;;20.49;78.42
81230;BME280;70701;44.452;18.652;2023-07-31T01:56:09;98898.84;;;20.22;79.18
81230;BME280;70701;44.452;18.652;2023-07-31T01:58:35;98910.56;;;20.03;79.96
81230;BME280;70701;44.452;18.652;2023-07-31T02:01:00;98904.81;;;19.86;80.68
81230;BME280;70701;44.452;18.652;2023-07-31T02:03:26;98904.69;;;20.07;79.85
81230;BME280;70701;44.452;18.652;2023-07-31T02:05:54;98901.38;;;20.19;79.47
81230;BME280;70701;44.452;18.652;2023-07-31T02:08:19;98865.19;;;20.29;78.19
81230;BME280;70701;44.452;18.652;2023-07-31T02:10:45;98906.00;;;20.77;77.21
81230;BME280;70701;44.452;18.652;2023-07-31T02:13:11;98897.78;;;20.79;76.56
81230;BME280;70701;44.452;18.652;2023-07-31T02:15:36;98894.34;;;20.58;76.21
81230;BME280;70701;44.452;18.652;2023-07-31T02:18:02;98905.75;;;20.69;75.83
81230;BME280;70701;44.452;18.652;2023-07-31T02:20:28;98896.88;;;20.45;76.17
81230;BME280;70701;44.452;18.652;2023-07-31T02:22:53;98910.53;;;20.46;76.27
81230;BME280;70701;44.452;18.652;2023-07-31T02:25:19;98909.69;;;20.34;76.63
81230;BME280;70701;44.452;18.652;2023-07-31T02:27:44;98905.78;;;20.20;76.94
81230;BME280;70701;44.452;18.652;2023-07-31T02:30:11;98913.16;;;20.07;77.08
81230;BME280;70701;44.452;18.652;2023-07-31T02:32:37;98909.78;;;20.03;77.48
81230;BME280;70701;44.452;18.652;2023-07-31T02:35:03;98912.88;;;19.99;77.91
81230;BME280;70701;44.452;18.652;2023-07-31T02:37:28;98907.19;;;19.93;77.82
81230;BME280;70701;44.452;18.652;2023-07-31T02:39:55;98910.84;;;20.05;76.81
81230;BME280;70701;44.452;18.652;2023-07-31T02:42:20;98878.31;;;19.84;77.40
81230;BME280;70701;44.452;18.652;2023-07-31T02:44:46;98873.91;;;19.77;78.16
81230;BME280;70701;44.452;18.652;2023-07-31T02:47:12;98900.00;;;19.98;77.78
81230;BME280;70701;44.452;18.652;2023-07-31T02:49:37;98909.31;;;20.10;77.61
81230;BME280;70701;44.452;18.652;2023-07-31T02:52:03;98913.00;;;20.27;77.04
81230;BME280;70701;44.452;18.652;2023-07-31T02:54:29;98904.78;;;20.24;77.02
81230;BME280;70701;44.452;18.652;2023-07-31T02:56:55;98918.41;;;20.31;77.13
81230;BME280;70701;44.452;18.652;2023-07-31T02:59:21;98911.25;;;20.41;76.31
81230;BME280;70701;44.452;18.652;2023-07-31T03:01:46;98917.44;;;20.39;76.63
81230;BME280;70701;44.452;18.652;2023-07-31T03:04:12;98880.63;;;19.48;78.27
81230;BME280;70701;44.452;18.652;2023-07-31T03:06:38;98914.47;;;19.42;79.05
81230;BME280;70701;44.452;18.652;2023-07-31T03:09:03;98931.69;;;19.18;80.34
81230;BME280;70701;44.452;18.652;2023-07-31T03:11:29;98928.09;;;18.71;82.91
81230;BME280;70701;44.452;18.652;2023-07-31T03:13:55;98930.31;;;18.61;84.04
81230;BME280;70701;44.452;18.652;2023-07-31T03:16:21;98936.78;;;18.88;82.43
81230;BME280;70701;44.452;18.652;2023-07-31T03:18:47;98935.91;;;19.02;82.12
81230;BME280;70701;44.452;18.652;2023-07-31T03:21:14;98933.44;;;19.10;81.59
81230;BME280;70701;44.452;18.652;2023-07-31T03:23:39;98947.97;;;19.55;79.15
81230;BME280;70701;44.452;18.652;2023-07-31T03:26:07;98930.25;;;19.86;77.71
81230;BME280;70701;44.452;18.652;2023-07-31T03:28:33;98926.19;;;19.98;77.06
81230;BME280;70701;44.452;18.652;2023-07-31T03:30:59;98939.09;;;20.05;76.78
81230;BME280;70701;44.452;18.652;2023-07-31T03:33:25;98949.38;;;20.08;76.19
81230;BME280;70701;44.452;18.652;2023-07-31T03:35:51;98925.38;;;19.87;76.16
81230;BME280;70701;44.452;18.652;2023-07-31T03:38:18;98945.47;;;19.94;76.12
81230;BME280;70701;44.452;18.652;2023-07-31T03:40:43;98951.88;;;19.95;75.75
81230;BME280;70701;44.452;18.652;2023-07-31T03:43:10;98950.16;;;20.03;75.03
81230;BME280;70701;44.452;18.652;2023-07-31T03:45:38;98932.19;;;19.74;75.85
81230;BME280;70701;44.452;18.652;2023-07-31T03:48:04;98961.75;;;19.73;76.64
81230;BME280;70701;44.452;18.652;2023-07-31T03:50:30;98953.97;;;19.68;76.93
81230;BME280;70701;44.452;18.652;2023-07-31T03:52:55;98965.53;;;19.70;76.81
81230;BME280;70701;44.452;18.652;2023-07-31T03:55:21;98962.53;;;19.74;76.20
81230;BME280;70701;44.452;18.652;2023-07-31T03:57:47;98965.84;;;19.72;76.77
81230;BME280;70701;44.452;18.652;2023-07-31T04:00:13;98978.03;;;19.58;77.31
81230;BME280;70701;44.452;18.652;2023-07-31T04:02:40;98987.81;;;19.62;76.58
81230;BME280;70701;44.452;18.652;2023-07-31T04:05:07;98984.19;;;19.83;75.76
81230;BME280;70701;44.452;18.652;2023-07-31T04:07:32;98999.41;;;19.65;76.44
81230;BME280;70701;44.452;18.652;2023-07-31T04:09:59;98989.66;;;19.66;75.86
81230;BME280;70701;44.452;18.652;2023-07-31T04:12:25;98986.78;;;19.60;75.97
81230;BME280;70701;44.452;18.652;2023-07-31T04:14:50;98992.53;;;19.71;75.86
81230;BME280;70701;44.452;18.652;2023-07-31T04:17:17;98987.06;;;19.62;76.77
81230;BME280;70701;44.452;18.652;2023-07-31T04:19:43;98986.19;;;19.50;78.05
81230;BME280;70701;44.452;18.652;2023-07-31T04:22:09;99006.97;;;19.47;78.83
81230;BME280;70701;44.452;18.652;2023-07-31T04:24:34;99007.19;;;19.43;79.35
81230;BME280;70701;44.452;18.652;2023-07-31T04:27:00;98987.44;;;19.49;78.96
81230;BME280;70701;44.452;18.652;2023-07-31T04:29:26;98995.94;;;19.75;78.42
81230;BME280;70701;44.452;18.652;2023-07-31T04:31:51;98987.50;;;19.81;77.97
81230;BME280;70701;44.452;18.652;2023-07-31T04:34:17;99004.28;;;19.90;78.96
81230;BME280;70701;44.452;18.652;2023-07-31T04:36:42;99006.41;;;18.76;83.75
81230;BME280;70701;44.452;18.652;2023-07-31T04:39:08;98991.41;;;18.84;84.25
81230;BME280;70701;44.452;18.652;2023-07-31T04:41:34;99001.25;;;18.54;85.09
81230;BME280;70701;44.452;18.652;2023-07-31T04:44:01;99011.47;;;18.51;86.23
81230;BME280;70701;44.452;18.652;2023-07-31T04:46:26;98972.56;;;19.22;82.31
81230;BME280;70701;44.452;18.652;2023-07-31T04:48:52;98997.41;;;20.03;78.81
81230;BME280;70701;44.452;18.652;2023-07-31T04:51:18;98972.00;;;20.08;78.24
81230;BME280;70701;44.452;18.652;2023-07-31T04:53:43;99015.28;;;20.20;78.47
81230;BME280;70701;44.452;18.652;2023-07-31T04:56:09;99008.69;;;20.34;78.18
81230;BME280;70701;44.452;18.652;2023-07-31T04:58:34;99010.31;;;20.47;77.93
81230;BME280;70701;44.452;18.652;2023-07-31T05:01:00;99014.16;;;19.74;81.79
81230;BME280;70701;44.452;18.652;2023-07-31T05:03:26;99009.84;;;19.53;82.11
81230;BME280;70701;44.452;18.652;2023-07-31T05:05:51;98996.97;;;19.26;82.82
81230;BME280;70701;44.452;18.652;2023-07-31T05:08:17;99016.31;;;19.59;82.30
81230;BME280;70701;44.452;18.652;2023-07-31T05:10:43;99013.94;;;19.78;81.11
81230;BME280;70701;44.452;18.652;2023-07-31T05:13:09;99019.91;;;19.59;82.54
81230;BME280;70701;44.452;18.652;2023-07-31T05:15:34;99020.69;;;19.60;82.47
81230;BME280;70701;44.452;18.652;2023-07-31T05:18:00;99009.03;;;19.73;82.35
81230;BME280;70701;44.452;18.652;2023-07-31T05:20:26;99003.75;;;19.86;81.84
81230;BME280;70701;44.452;18.652;2023-07-31T05:22:53;99005.59;;;20.32;80.15
81230;BME280;70701;44.452;18.652;2023-07-31T05:25:18;99015.22;;;20.52;79.49
81230;BME280;70701;44.452;18.652;2023-07-31T05:27:44;99007.34;;;19.87;81.49
81230;BME280;70701;44.452;18.652;2023-07-31T05:30:10;99003.47;;;20.22;80.84
81230;BME280;70701;44.452;18.652;2023-07-31T05:32:35;98990.34;;;20.62;79.16
81230;BME280;70701;44.452;18.652;2023-07-31T05:35:01;98999.44;;;20.83;78.26
81230;BME280;70701;44.452;18.652;2023-07-31T05:37:26;99006.16;;;20.96;77.90
81230;BME280;70701;44.452;18.652;2023-07-31T05:39:52;99001.88;;;21.12;76.89
81230;BME280;70701;44.452;18.652;2023-07-31T05:42:18;99001.66;;;21.39;76.22
81230;BME280;70701;44.452;18.652;2023-07-31T05:44:43;98997.56;;;21.51;75.71
81230;BME280;70701;44.452;18.652;2023-07-31T05:47:09;99002.25;;;21.71;74.83
81230;BME280;70701;44.452;18.652;2023-07-31T05:49:35;99008.41;;;21.69;75.05
81230;BME280;70701;44.452;18.652;2023-07-31T05:52:01;98995.03;;;21.81;74.56
81230;BME280;70701;44.452;18.652;2023-07-31T05:54:26;99001.72;;;21.50;75.73
81230;BME280;70701;44.452;18.652;2023-07-31T05:56:53;98989.56;;;21.38;75.99
81230;BME280;70701;44.452;18.652;2023-07-31T05:59:19;99012.03;;;21.64;75.47
81230;BME280;70701;44.452;18.652;2023-07-31T06:01:44;99006.13;;;21.85;74.47
81230;BME280;70701;44.452;18.652;2023-07-31T06:04:10;99004.28;;;22.04;73.79
81230;BME280;70701;44.452;18.652;2023-07-31T06:06:35;99007.13;;;21.99;74.30
81230;BME280;70701;44.452;18.652;2023-07-31T06:09:01;98997.84;;;22.15;73.24
81230;BME280;70701;44.452;18.652;2023-07-31T06:11:29;99019.25;;;22.27;73.30
81230;BME280;70701;44.452;18.652;2023-07-31T06:13:54;99001.44;;;22.44;72.85
81230;BME280;70701;44.452;18.652;2023-07-31T06:16:20;99015.88;;;22.40;72.71
81230;BME280;70701;44.452;18.652;2023-07-31T06:18:47;99020.28;;;22.02;74.23
81230;BME280;70701;44.452;18.652;2023-07-31T06:21:13;99014.59;;;22.36;73.25
81230;BME280;70701;44.452;18.652;2023-07-31T06:23:39;99004.03;;;22.36;73.05
81230;BME280;70701;44.452;18.652;2023-07-31T06:26:04;99003.19;;;22.58;71.79
81230;BME280;70701;44.452;18.652;2023-07-31T06:28:31;99009.53;;;22.87;71.20
81230;BME280;70701;44.452;18.652;2023-07-31T06:30:57;98996.91;;;22.82;72.34
81230;BME280;70701;44.452;18.652;2023-07-31T06:33:24;99005.75;;;22.67;73.01
81230;BME280;70701;44.452;18.652;2023-07-31T06:35:50;99012.72;;;22.66;73.39
81230;BME280;70701;44.452;18.652;2023-07-31T06:38:27;99000.63;;;22.55;73.53
81230;BME280;70701;44.452;18.652;2023-07-31T06:40:53;99008.66;;;22.45;74.90
81230;BME280;70701;44.452;18.652;2023-07-31T06:43:19;99009.41;;;22.51;74.24
81230;BME280;70701;44.452;18.652;2023-07-31T06:45:44;99010.22;;;22.29;74.41
81230;BME280;70701;44.452;18.652;2023-07-31T06:48:11;99022.59;;;22.09;74.38
81230;BME280;70701;44.452;18.652;2023-07-31T06:50:36;99018.22;;;22.30;74.47
81230;BME280;70701;44.452;18.652;2023-07-31T06:53:02;99010.97;;;22.24;74.90
81230;BME280;70701;44.452;18.652;2023-07-31T06:55:28;99024.13;;;22.38;74.53
81230;BME280;70701;44.452;18.652;2023-07-31T06:57:55;99021.56;;;22.35;74.17
81230;BME280;70701;44.452;18.652;2023-07-31T07:00:22;99025.44;;;22.31;74.08
81230;BME280;70701;44.452;18.652;2023-07-31T07:02:48;99023.88;;;22.25;74.56
81230;BME280;70701;44.452;18.652;2023-07-31T07:05:14;99018.72;;;22.35;73.98
81230;BME280;70701;44.452;18.652;2023-07-31T07:07:41;99020.81;;;22.11;74.53
81230;BME280;70701;44.452;18.652;2023-07-31T07:10:07;99007.38;;;22.18;73.87
81230;BME280;70701;44.452;18.652;2023-07-31T07:12:34;99013.03;;;22.23;73.60
81230;BME280;70701;44.452;18.652;2023-07-31T07:15:00;99019.66;;;22.65;72.73
81230;BME280;70701;44.452;18.652;2023-07-31T07:17:28;99008.72;;;23.03;71.24
81230;BME280;70701;44.452;18.652;2023-07-31T07:19:54;99010.31;;;22.87;73.67
81230;BME280;70701;44.452;18.652;2023-07-31T07:22:21;99015.53;;;22.72;72.70
81230;BME280;70701;44.452;18.652;2023-07-31T07:24:46;99005.44;;;22.71;72.28
81230;BME280;70701;44.452;18.652;2023-07-31T07:27:12;99023.34;;;22.55;71.99
81230;BME280;70701;44.452;18.652;2023-07-31T07:29:38;99025.09;;;22.63;72.93
81230;BME280;70701;44.452;18.652;2023-07-31T07:32:04;99015.84;;;22.57;71.78
81230;BME280;70701;44.452;18.652;2023-07-31T07:34:33;99017.66;;;22.55;72.73
81230;BME280;70701;44.452;18.652;2023-07-31T07:36:59;99025.88;;;22.64;72.78
81230;BME280;70701;44.452;18.652;2023-07-31T07:39:24;99024.88;;;22.44;72.22
81230;BME280;70701;44.452;18.652;2023-07-31T07:41:53;99018.69;;;22.46;72.57
81230;BME280;70701;44.452;18.652;2023-07-31T07:44:19;99022.53;;;22.54;71.86
81230;BME280;70701;44.452;18.652;2023-07-31T07:46:45;99029.25;;;22.62;72.28
81230;BME280;70701;44.452;18.652;2023-07-31T07:49:11;99028.50;;;22.56;70.55
81230;BME280;70701;44.452;18.652;2023-07-31T07:51:36;99026.72;;;22.30;71.16
81230;BME280;70701;44.452;18.652;2023-07-31T07:54:02;98979.78;;;22.07;71.89
81230;BME280;70701;44.452;18.652;2023-07-31T07:56:28;99021.94;;;22.78;69.87
81230;BME280;70701;44.452;18.652;2023-07-31T07:58:54;99024.00;;;22.83;69.64
81230;BME280;70701;44.452;18.652;2023-07-31T08:01:20;99026.53;;;22.98;69.34
81230;BME280;70701;44.452;18.652;2023-07-31T08:03:46;99007.16;;;22.97;68.74
81230;BME280;70701;44.452;18.652;2023-07-31T08:06:12;99015.41;;;23.06;69.01
81230;BME280;70701;44.452;18.652;2023-07-31T08:08:38;99014.22;;;22.79;68.70
81230;BME280;70701;44.452;18.652;2023-07-31T08:11:04;99030.66;;;22.91;67.95
81230;BME280;70701;44.452;18.652;2023-07-31T08:13:30;99023.41;;;23.02;66.98
81230;BME280;70701;44.452;18.652;2023-07-31T08:15:56;99018.94;;;23.23;64.69
81230;BME280;70701;44.452;18.652;2023-07-31T08:18:21;99028.47;;;23.32;65.16
81230;BME280;70701;44.452;18.652;2023-07-31T08:20:47;99024.00;;;23.42;66.52
81230;BME280;70701;44.452;18.652;2023-07-31T08:23:13;99016.38;;;23.61;64.26
81230;BME280;70701;44.452;18.652;2023-07-31T08:25:39;99025.25;;;23.88;65.09
81230;BME280;70701;44.452;18.652;2023-07-31T08:28:05;99024.78;;;23.84;64.27
81230;BME280;70701;44.452;18.652;2023-07-31T08:30:32;99022.88;;;23.92;63.74
81230;BME280;70701;44.452;18.652;2023-07-31T08:32:59;99029.88;;;24.21;63.10
81230;BME280;70701;44.452;18.652;2023-07-31T08:35:25;99031.91;;;23.96;63.00
81230;BME280;70701;44.452;18.652;2023-07-31T08:37:51;99028.66;;;24.11;62.69
81230;BME280;70701;44.452;18.652;2023-07-31T08:40:17;99032.97;;;24.48;62.98
81230;BME280;70701;44.452;18.652;2023-07-31T08:42:46;99035.22;;;24.61;61.56
81230;BME280;70701;44.452;18.652;2023-07-31T08:45:16;99027.47;;;24.31;61.51
81230;BME280;70701;44.452;18.652;2023-07-31T08:47:45;99030.41;;;24.20;61.21
81230;BME280;70701;44.452;18.652;2023-07-31T08:50:13;99029.38;;;24.17;59.58
81230;BME280;70701;44.452;18.652;2023-07-31T08:52:39;99039.28;;;23.75;62.14
81230;BME280;70701;44.452;18.652;2023-07-31T08:55:06;99017.91;;;23.62;61.56
81230;BME280;70701;44.452;18.652;2023-07-31T08:57:37;99031.03;;;23.71;60.79
81230;BME280;70701;44.452;18.652;2023-07-31T09:00:07;99030.31;;;23.65;62.83
81230;BME280;70701;44.452;18.652;2023-07-31T09:02:46;99034.13;;;23.79;60.22
81230;BME280;70701;44.452;18.652;2023-07-31T09:05:12;99020.91;;;24.12;60.61
81230;BME280;70701;44.452;18.652;2023-07-31T09:07:39;99016.91;;;24.26;60.68
81230;BME280;70701;44.452;18.652;2023-07-31T09:10:06;99004.69;;;24.06;62.10
81230;BME280;70701;44.452;18.652;2023-07-31T09:12:32;99014.31;;;23.98;60.56
81230;BME280;70701;44.452;18.652;2023-07-31T09:14:58;99006.34;;;23.91;60.41
81230;BME280;70701;44.452;18.652;2023-07-31T09:17:31;99010.94;;;23.63;60.06
81230;BME280;70701;44.452;18.652;2023-07-31T09:19:57;99007.13;;;23.91;57.66
81230;BME280;70701;44.452;18.652;2023-07-31T09:22:33;99006.19;;;24.08;58.70
81230;BME280;70701;44.452;18.652;2023-07-31T09:25:28;99006.81;;;23.95;59.38
81230;BME280;70701;44.452;18.652;2023-07-31T09:28:03;99001.66;;;23.99;57.85
81230;BME280;70701;44.452;18.652;2023-07-31T09:30:30;99004.81;;;23.90;59.89
81230;BME280;70701;44.452;18.652;2023-07-31T09:33:06;99000.63;;;24.45;56.04
81230;BME280;70701;44.452;18.652;2023-07-31T09:35:34;99000.53;;;24.57;53.95
81230;BME280;70701;44.452;18.652;2023-07-31T09:38:07;98996.22;;;24.75;55.32
81230;BME280;70701;44.452;18.652;2023-07-31T09:40:35;98996.31;;;24.88;56.15
81230;BME280;70701;44.452;18.652;2023-07-31T09:43:06;98990.59;;;24.88;54.97
81230;BME280;70701;44.452;18.652;2023-07-31T09:45:37;98990.31;;;25.11;54.25
81230;BME280;70701;44.452;18.652;2023-07-31T09:48:03;98934.47;;;24.83;52.01
81230;BME280;70701;44.452;18.652;2023-07-31T09:50:32;98985.94;;;25.29;49.67
81230;BME280;70701;44.452;18.652;2023-07-31T09:52:57;98972.53;;;25.24;51.17
81230;BME280;70701;44.452;18.652;2023-07-31T09:55:24;98979.44;;;25.09;51.93
81230;BME280;70701;44.452;18.652;2023-07-31T09:57:50;98979.06;;;24.99;53.21
81230;BME280;70701;44.452;18.652;2023-07-31T10:00:18;98986.84;;;24.80;53.38
81230;BME280;70701;44.452;18.652;2023-07-31T10:02:47;98990.19;;;24.59;53.09
81230;BME280;70701;44.452;18.652;2023-07-31T10:05:15;98975.44;;;24.80;52.98
81230;BME280;70701;44.452;18.652;2023-07-31T10:07:57;98969.69;;;25.24;52.83
81230;BME280;70701;44.452;18.652;2023-07-31T10:10:23;98955.81;;;25.33;50.59
81230;BME280;70701;44.452;18.652;2023-07-31T10:12:52;98971.59;;;25.15;50.38
81230;BME280;70701;44.452;18.652;2023-07-31T10:15:18;98971.38;;;25.13;51.06
81230;BME280;70701;44.452;18.652;2023-07-31T10:17:48;98968.13;;;25.03;50.55
81230;BME280;70701;44.452;18.652;2023-07-31T10:20:15;98962.25;;;25.15;49.53
81230;BME280;70701;44.452;18.652;2023-07-31T10:22:44;98965.56;;;25.00;49.00
81230;BME280;70701;44.452;18.652;2023-07-31T10:25:11;98962.81;;;24.94;49.48
81230;BME280;70701;44.452;18.652;2023-07-31T10:27:41;98955.06;;;24.95;50.77
81230;BME280;70701;44.452;18.652;2023-07-31T10:30:12;98962.50;;;24.79;50.36
81230;BME280;70701;44.452;18.652;2023-07-31T10:32:43;98945.16;;;24.58;50.95
81230;BME280;70701;44.452;18.652;2023-07-31T10:35:11;98940.94;;;24.64;52.38
81230;BME280;70701;44.452;18.652;2023-07-31T10:37:39;98942.53;;;24.60;51.89
81230;BME280;70701;44.452;18.652;2023-07-31T10:40:10;98950.56;;;24.61;51.97
81230;BME280;70701;44.452;18.652;2023-07-31T10:42:37;98940.56;;;25.12;50.68
81230;BME280;70701;44.452;18.652;2023-07-31T10:45:07;98940.22;;;25.53;48.35
81230;BME280;70701;44.452;18.652;2023-07-31T10:47:46;98943.44;;;25.76;48.65
81230;BME280;70701;44.452;18.652;2023-07-31T10:52:49;98939.44;;;25.53;46.96
81230;BME280;70701;44.452;18.652;2023-07-31T10:55:26;98936.38;;;25.13;48.75
81230;BME280;70701;44.452;18.652;2023-07-31T10:57:53;98912.94;;;24.69;49.76
81230;BME280;70701;44.452;18.652;2023-07-31T11:00:27;98933.16;;;24.84;49.97
81230;BME280;70701;44.452;18.652;2023-07-31T11:03:20;98937.94;;;24.76;50.26
81230;BME280;70701;44.452;18.652;2023-07-31T11:05:53;98924.31;;;24.88;49.04
81230;BME280;70701;44.452;18.652;2023-07-31T11:08:26;98923.31;;;25.23;47.73
81230;BME280;70701;44.452;18.652;2023-07-31T11:11:06;98929.47;;;25.59;46.37
81230;BME280;70701;44.452;18.652;2023-07-31T11:13:46;98915.59;;;25.83;41.41
81230;BME280;70701;44.452;18.652;2023-07-31T11:16:14;98924.75;;;25.94;42.09
81230;BME280;70701;44.452;18.652;2023-07-31T11:18:41;98926.72;;;25.99;43.64
81230;BME280;70701;44.452;18.652;2023-07-31T11:21:11;98923.38;;;25.82;40.13
81230;BME280;70701;44.452;18.652;2023-07-31T11:23:37;98914.72;;;25.88;41.48
81230;BME280;70701;44.452;18.652;2023-07-31T11:26:05;98919.81;;;26.08;39.94
81230;BME280;70701;44.452;18.652;2023-07-31T11:28:32;98914.22;;;26.03;39.98
81230;BME280;70701;44.452;18.652;2023-07-31T11:31:02;98912.88;;;25.90;40.62
81230;BME280;70701;44.452;18.652;2023-07-31T11:33:28;98907.00;;;26.15;39.75
81230;BME280;70701;44.452;18.652;2023-07-31T11:35:54;98914.56;;;26.26;40.26
81230;BME280;70701;44.452;18.652;2023-07-31T11:38:27;98919.28;;;26.36;39.69
81230;BME280;70701;44.452;18.652;2023-07-31T11:40:53;98917.53;;;26.20;40.16
81230;BME280;70701;44.452;18.652;2023-07-31T11:43:20;98917.19;;;25.97;38.40
81230;BME280;70701;44.452;18.652;2023-07-31T11:45:57;98917.72;;;25.95;38.73
81230;BME280;70701;44.452;18.652;2023-07-31T11:50:51;98917.50;;;26.07;38.53
81230;BME280;70701;44.452;18.652;2023-07-31T11:53:24;98905.34;;;26.06;37.04
81230;BME280;70701;44.452;18.652;2023-07-31T11:55:51;98909.28;;;26.03;38.06
81230;BME280;70701;44.452;18.652;2023-07-31T11:58:17;98904.47;;;26.11;38.36
81230;BME280;70701;44.452;18.652;2023-07-31T12:00:44;98904.81;;;26.21;39.46
81230;BME280;70701;44.452;18.652;2023-07-31T12:03:11;98895.13;;;26.37;38.90
81230;BME280;70701;44.452;18.652;2023-07-31T12:05:37;98902.69;;;26.35;37.17
81230;BME280;70701;44.452;18.652;2023-07-31T12:08:10;98903.38;;;26.41;37.49
81230;BME280;70701;44.452;18.652;2023-07-31T12:10:37;98895.97;;;26.59;37.74
81230;BME280;70701;44.452;18.652;2023-07-31T12:13:05;98895.00;;;26.70;36.61
81230;BME280;70701;44.452;18.652;2023-07-31T12:15:35;98892.03;;;26.75;38.42
81230;BME280;70701;44.452;18.652;2023-07-31T12:18:09;98882.56;;;26.81;37.56
81230;BME280;70701;44.452;18.652;2023-07-31T12:20:40;98888.28;;;26.54;36.53
81230;BME280;70701;44.452;18.652;2023-07-31T12:23:07;98885.66;;;26.43;35.84
81230;BME280;70701;44.452;18.652;2023-07-31T12:25:37;98869.50;;;26.58;38.46
81230;BME280;70701;44.452;18.652;2023-07-31T12:28:04;98876.66;;;26.65;37.93
81230;BME280;70701;44.452;18.652;2023-07-31T12:30:34;98855.03;;;26.43;38.26
81230;BME280;70701;44.452;18.652;2023-07-31T12:33:04;98868.00;;;26.44;38.96
81230;BME280;70701;44.452;18.652;2023-07-31T12:35:38;98868.03;;;26.17;40.81
81230;BME280;70701;44.452;18.652;2023-07-31T12:38:05;98857.47;;;26.12;41.00
81230;BME280;70701;44.452;18.652;2023-07-31T12:40:32;98862.88;;;26.03;40.42
81230;BME280;70701;44.452;18.652;2023-07-31T12:43:00;98853.22;;;26.06;40.06
81230;BME280;70701;44.452;18.652;2023-07-31T12:45:27;98845.81;;;26.24;38.68
81230;BME280;70701;44.452;18.652;2023-07-31T12:47:53;98842.50;;;26.46;37.41
81230;BME280;70701;44.452;18.652;2023-07-31T12:50:19;98832.06;;;26.49;38.81
81230;BME280;70701;44.452;18.652;2023-07-31T12:52:45;98838.84;;;26.59;38.56
81230;BME280;70701;44.452;18.652;2023-07-31T12:55:11;98831.75;;;26.52;37.39
81230;BME280;70701;44.452;18.652;2023-07-31T12:57:36;98827.97;;;26.57;36.88
81230;BME280;70701;44.452;18.652;2023-07-31T13:00:03;98829.97;;;26.49;37.03